Brunswick Golden Isles Airport
KBQK : now visible

Airfield :











YOU CAN JOIN US ON...

 
LOGIN :

Register | Disclaimer

   EN    FR    IT 

 









Legend :    VFR   Marginal VFR   IFR   Intensive IFR   Very Intensive IFR
Visi :
Ceiling :
>= 8 km
>= 3000ft
5 to 8 km
1000 to 3000 ft
1500m to 5 km
500 to 1000 ft
800 to 1500m
200 to 500 ft
< 800m
< 200 ft
Symbols :   Thunderstorms  Fog  Heavy snow  Heavy precipitations  Wind > 20 kt







- Airport Elevation : 26 ft
- IATA code : BQK


KBQK - Brunswick Golden Isles

CURRENT METAR :
  • 171155Z AUTO 24004KT 10SM CLR 26/24 A3010 RMK AO2 T02650242 10266 20236

EXPIRED METARs :
  • 171135Z AUTO 25003KT 10SM CLR 25/24 A3010 RMK AO2 T02520238
  • 171115Z AUTO 00000KT 10SM CLR 24/23 A3009 RMK AO2 T02420232
  • 171055Z AUTO 00000KT 10SM CLR 24/23 A3009 RMK AO2 T02390229
  • 171035Z AUTO 00000KT 10SM CLR 24/23 A3008 RMK AO2 T02380228
  • 171015Z AUTO 00000KT 10SM CLR 25/23 A3008 RMK AO2 T02470231
  • 170955Z AUTO 00000KT 10SM CLR 25/23 A3007 RMK AO2 T02490231
  • 170935Z AUTO 25004KT 10SM CLR 25/23 A3007 RMK AO2 T02480231
  • 170915Z AUTO 21004KT 10SM CLR 25/23 A3007 RMK AO2 T02500229

TAF N/A
KZJX FIR / North America



MET'MAP, your aeronautical weather chart ! - Copyright ORBIFLY December 2007 - Disclaimer

ORBIFLY MET'MAP TEAM :

Programming & Development : Alexandra Zaïnal
Concept & Development : Baudouin d'Aumeries
Co-Development & Prog : Marc-Olivier Méhu
Technical & hardware support : Manuel Goepfert

Contact : metmap@orbifly.com




SOURCES & CREDITS :

   NOAA       Earth
Advisory